This is the latest recevied weather packets stored in our database for station/object OH1KK. If no packets are shown the sender has not sent any weather packets the latest 10 day(s).
| Time | Temp. | Humidity | Pressure | Rain* | Wind** | Luminosity | Snow |
|---|---|---|---|---|---|---|---|
| 1778013296 | 2.78° C | 63% | 995.1 hPa | 0 mm | - | - | - |
| 1778012381 | 3.33° C | 62% | 995 hPa | 0 mm | - | - | - |
| 1778007866 | 5.56° C | 52% | 994.5 hPa | 0 mm | - | - | - |
| 1778006097 | 6.11° C | 49% | 994.5 hPa | 0 mm | - | - | - |
| 1778005182 | 6.11° C | 48% | 994.4 hPa | 0 mm | - | - | - |
| 1778004267 | 6.67° C | 46% | 994.5 hPa | 0 mm | - | - | - |
| 1778002498 | 7.78° C | 42% | 993.9 hPa | 0 mm | - | - | - |
| 1778000668 | 8.33° C | 38% | 993.7 hPa | 0 mm | - | - | - |
| 1777997069 | 8.89° C | 35% | 993.6 hPa | 0 mm | - | - | - |
| 1777995299 | 8.89° C | 32% | 993.5 hPa | 0 mm | - | - | - |
| 1777994384 | 9.44° C | 35% | 993.3 hPa | 0 mm | - | - | - |
| 1777993468 | 8.89° C | 34% | 993.1 hPa | 0 mm | - | - | - |
| 1777992555 | 8.89° C | 37% | 993.3 hPa | 0 mm | - | - | - |
| 1777991700 | 8.89° C | 35% | 993.1 hPa | 0 mm | - | - | - |
| 1777990785 | 9.44° C | 35% | 993 hPa | 0 mm | - | - | - |
| 1777989870 | 8.89° C | 35% | 993 hPa | 0 mm | - | - | - |
| 1777986270 | 8.89° C | 38% | 992.9 hPa | 0 mm | - | - | - |
| 1777984441 | 7.78° C | 39% | 992.6 hPa | 0 mm | - | - | - |
| 1777981757 | 7.78° C | 44% | 992.1 hPa | 0 mm | - | - | - |
| 1777980842 | 7.78° C | 44% | 991.9 hPa | 0 mm | - | - | - |
| 1777978158 | 6.11° C | 48% | 991.7 hPa | 0 mm | - | - | - |
| 1777977243 | 6.11° C | 51% | 991.6 hPa | 0 mm | - | - | - |
| 1777976388 | 6.11° C | 52% | 991.3 hPa | 0 mm | - | - | - |
| 1777975473 | 6.11° C | 54% | 991.1 hPa | 0 mm | - | - | - |
| 1777974559 | 5.56° C | 57% | 990.9 hPa | 0 mm | - | - | - |
* Rain latest hour (hover to see other rain measurements)
** Current wind speed in m/s (hover to see current wind gust speed)